Time;durP1;ratioP1;P1;durP2;ratioP2;P2;SDS_P1;SDS_P2;PMS_P1;PMS_P2;Temp;Humidity;BMP_temperature;BMP_pressure;BME280_temperature;BME280_humidity;BME280_pressure;Samples;Min_cycle;Max_cycle;Signal;HPM_P1;HPM_P2
2023/03/16 00:01:21;;;;;;;3.03;1.80;;;;;;;;;;5052672;28;20041;-48
2023/03/16 00:03:52;;;;;;;3.05;1.83;;;;;;;;;;5037744;28;20037;-43
2023/03/16 00:06:18;;;;;;;2.60;1.50;;;;;;;;;;5037927;28;20050;-43
2023/03/16 00:08:43;;;;;;;1.60;1.50;;;;;;;;;;5029474;28;20091;-43
2023/03/16 00:11:08;;;;;;;3.70;1.42;;;;;;;;;;5033426;28;20040;-41
2023/03/16 00:13:34;;;;;;;2.55;1.77;;;;;;;;;;5038035;28;20033;-42
2023/03/16 00:16:04;;;;;;;2.45;1.13;;;;;;;;;;5050319;28;20517;-43
2023/03/16 00:18:30;;;;;;;1.55;1.35;;;;;;;;;;5041945;28;20022;-41
2023/03/16 00:21:04;;;;;;;4.70;1.50;;;;;;;;;;5035815;28;20025;-42
2023/03/16 00:23:34;;;;;;;2.63;1.70;;;;;;;;;;5034660;28;20051;-47
2023/03/16 00:26:04;;;;;;;1.75;1.50;;;;;;;;;;5035803;28;20032;-42
2023/03/16 00:28:40;;;;;;;2.75;1.92;;;;;;;;;;5037390;28;20036;-42
2023/03/16 00:31:13;;;;;;;3.55;1.88;;;;;;;;;;5036325;28;20033;-45
2023/03/16 00:33:47;;;;;;;5.03;1.85;;;;;;;;;;5033607;28;20111;-43
2023/03/16 00:36:12;;;;;;;4.35;1.88;;;;;;;;;;5037649;28;20032;-41
2023/03/16 00:38:44;;;;;;;1.98;1.75;;;;;;;;;;5034099;28;20084;-42
2023/03/16 00:41:13;;;;;;;2.30;1.90;;;;;;;;;;5033236;28;20075;-41
2023/03/16 00:43:39;;;;;;;5.35;2.35;;;;;;;;;;5034155;28;20123;-42
2023/03/16 00:46:07;;;;;;;2.13;1.70;;;;;;;;;;5032845;28;20029;-42
2023/03/16 00:48:37;;;;;;;2.05;1.90;;;;;;;;;;5033244;28;20112;-42
2023/03/16 00:51:11;;;;;;;5.68;2.28;;;;;;;;;;5034160;28;20052;-42
2023/03/16 00:53:38;;;;;;;2.55;2.33;;;;;;;;;;5037493;28;20096;-42
2023/03/16 00:56:04;;;;;;;5.00;2.30;;;;;;;;;;5038186;28;20078;-43
2023/03/16 00:58:35;;;;;;;3.75;2.80;;;;;;;;;;5037835;28;20382;-43
2023/03/16 01:01:02;;;;;;;6.03;3.03;;;;;;;;;;5026620;28;20044;-42
2023/03/16 01:03:39;;;;;;;4.88;3.40;;;;;;;;;;5033825;28;20028;-42
2023/03/16 01:06:09;;;;;;;4.13;2.42;;;;;;;;;;5036208;28;20164;-45
2023/03/16 01:08:35;;;;;;;3.33;2.40;;;;;;;;;;5033219;28;20029;-42
2023/03/16 01:11:05;;;;;;;5.50;2.10;;;;;;;;;;5031953;28;20029;-45
2023/03/16 01:13:31;;;;;;;2.95;2.10;;;;;;;;;;5029511;28;20467;-41
2023/03/16 01:15:57;;;;;;;4.78;2.17;;;;;;;;;;5034185;28;20033;-40
2023/03/16 01:18:22;;;;;;;2.50;1.80;;;;;;;;;;5028904;28;20114;-41
2023/03/16 01:20:49;;;;;;;2.72;2.50;;;;;;;;;;5032219;28;20061;-42
2023/03/16 01:23:21;;;;;;;3.15;1.88;;;;;;;;;;5035786;28;20053;-41
2023/03/16 01:25:53;;;;;;;3.92;2.20;;;;;;;;;;5033653;28;20163;-42
2023/03/16 01:28:20;;;;;;;7.53;3.92;;;;;;;;;;5034958;28;20045;-42
2023/03/16 01:30:46;;;;;;;7.70;5.25;;;;;;;;;;5030383;28;20259;-41
2023/03/16 01:33:11;;;;;;;7.32;4.90;;;;;;;;;;5034427;28;20112;-41
2023/03/16 01:35:37;;;;;;;7.60;4.28;;;;;;;;;;5038950;28;20024;-41
2023/03/16 01:38:03;;;;;;;6.00;4.18;;;;;;;;;;5034291;28;20175;-44
2023/03/16 01:40:30;;;;;;;3.38;2.38;;;;;;;;;;5033198;28;20083;-40
2023/03/16 01:43:01;;;;;;;5.45;2.70;;;;;;;;;;5035467;28;20056;-42
2023/03/16 01:46:03;;;;;;;3.47;2.78;;;;;;;;;;5032500;28;20577;-40
2023/03/16 01:48:36;;;;;;;4.63;2.58;;;;;;;;;;5032224;28;20045;-41
2023/03/16 01:51:02;;;;;;;;;;;;;;;;;;5030677;28;20028;-40
2023/03/16 01:53:28;;;;;;;2.08;1.80;;;;;;;;;;5032264;28;20654;-41
2023/03/16 01:55:54;;;;;;;1.83;1.70;;;;;;;;;;5033067;28;20108;-41
2023/03/16 01:58:20;;;;;;;2.03;1.83;;;;;;;;;;5035810;28;20053;-41
2023/03/16 02:00:56;;;;;;;4.35;1.80;;;;;;;;;;5034713;28;20025;-41
2023/03/16 02:03:23;;;;;;;1.70;1.60;;;;;;;;;;5029649;28;20049;-42
2023/03/16 02:06:02;;;;;;;5.22;2.22;;;;;;;;;;5038346;28;20036;-43
2023/03/16 02:08:31;;;;;;;2.83;2.10;;;;;;;;;;5036344;28;20520;-41
2023/03/16 02:10:57;;;;;;;4.70;2.10;;;;;;;;;;5032581;28;20430;-40
2023/03/16 02:13:23;;;;;;;2.67;1.98;;;;;;;;;;5031965;28;20052;-41
2023/03/16 02:15:50;;;;;;;2.38;2.17;;;;;;;;;;5031854;28;20064;-40
2023/03/16 02:18:16;;;;;;;2.85;2.10;;;;;;;;;;5032209;28;20103;-41
2023/03/16 02:21:02;;;;;;;5.97;2.28;;;;;;;;;;5035813;28;20025;-43
2023/03/16 02:23:29;;;;;;;2.45;1.80;;;;;;;;;;5027313;28;20141;-42
2023/03/16 02:26:00;;;;;;;2.08;1.52;;;;;;;;;;5036111;28;20057;-41
2023/03/16 02:28:48;;;;;;;2.70;1.70;;;;;;;;;;5031965;28;20095;-43
2023/03/16 02:31:17;;;;;;;2.22;1.65;;;;;;;;;;5023458;28;20025;-41
2023/03/16 02:33:43;;;;;;;1.90;1.80;;;;;;;;;;5033938;28;20032;-42
2023/03/16 02:36:12;;;;;;;3.65;1.90;;;;;;;;;;5035475;28;20381;-42
2023/03/16 02:38:38;;;;;;;2.10;1.90;;;;;;;;;;5034733;28;20025;-40
2023/03/16 02:41:11;;;;;;;2.10;1.90;;;;;;;;;;5037234;28;20051;-41
2023/03/16 02:43:43;;;;;;;1.40;1.25;;;;;;;;;;5045843;28;20116;-42
2023/03/16 02:46:09;;;;;;;3.05;1.70;;;;;;;;;;5032742;28;20032;-40
2023/03/16 02:49:01;;;;;;;1.95;1.45;;;;;;;;;;5035972;28;20032;-42
2023/03/16 02:51:28;;;;;;;2.63;1.65;;;;;;;;;;5028346;28;20056;-42
2023/03/16 02:53:53;;;;;;;1.83;1.65;;;;;;;;;;5034555;28;20048;-41
2023/03/16 02:56:18;;;;;;;2.47;1.83;;;;;;;;;;5034211;28;20037;-41
2023/03/16 02:58:44;;;;;;;5.53;2.10;;;;;;;;;;5037212;28;20026;-41
2023/03/16 03:01:12;;;;;;;2.50;1.88;;;;;;;;;;5029324;28;20220;-42
2023/03/16 03:03:38;;;;;;;2.92;2.10;;;;;;;;;;5032630;28;20033;-41
2023/03/16 03:06:07;;;;;;;2.92;1.85;;;;;;;;;;5034891;28;20457;-43
2023/03/16 03:08:32;;;;;;;5.47;2.08;;;;;;;;;;5037891;28;20495;-41
2023/03/16 03:10:58;;;;;;;2.67;1.83;;;;;;;;;;5033805;28;20061;-41
2023/03/16 03:13:26;;;;;;;3.85;2.20;;;;;;;;;;5031678;28;20037;-40
2023/03/16 03:15:52;;;;;;;4.05;1.90;;;;;;;;;;5047721;28;20777;-42
2023/03/16 03:18:17;;;;;;;3.63;1.98;;;;;;;;;;5034581;28;20135;-42
2023/03/16 03:20:45;;;;;;;7.97;2.10;;;;;;;;;;5032910;28;20441;-41
2023/03/16 03:23:11;;;;;;;7.07;2.22;;;;;;;;;;5032678;28;20042;-41
2023/03/16 03:25:46;;;;;;;5.95;2.08;;;;;;;;;;5030910;28;20068;-41
2023/03/16 03:28:12;;;;;;;4.28;1.95;;;;;;;;;;5024795;28;20029;-41
2023/03/16 03:30:37;;;;;;;4.07;2.22;;;;;;;;;;5031199;28;20497;-41
2023/03/16 03:33:06;;;;;;;4.40;1.48;;;;;;;;;;5031902;28;20037;-41
2023/03/16 03:35:32;;;;;;;5.22;1.60;;;;;;;;;;5034544;28;20036;-41
2023/03/16 03:38:10;;;;;;;1.60;1.50;;;;;;;;;;5031664;28;20033;-40
2023/03/16 03:40:36;;;;;;;1.80;1.70;;;;;;;;;;5030987;28;20033;-40
2023/03/16 03:43:03;;;;;;;4.95;1.70;;;;;;;;;;5034032;28;20040;-41
2023/03/16 03:45:29;;;;;;;3.28;1.52;;;;;;;;;;5028999;28;20112;-41
2023/03/16 03:47:55;;;;;;;1.70;1.60;;;;;;;;;;5035108;28;20132;-41
2023/03/16 03:50:21;;;;;;;1.95;1.38;;;;;;;;;;5031371;28;20074;-41
2023/03/16 03:52:46;;;;;;;1.65;1.45;;;;;;;;;;5028673;28;20543;-43
2023/03/16 03:55:12;;;;;;;3.17;1.65;;;;;;;;;;5034188;28;20486;-41
2023/03/16 03:57:41;;;;;;;3.50;1.50;;;;;;;;;;5038757;28;20045;-41
2023/03/16 04:00:10;;;;;;;1.88;1.38;;;;;;;;;;5038515;28;20026;-41
2023/03/16 04:02:48;;;;;;;4.50;1.55;;;;;;;;;;5039209;28;20131;-43
2023/03/16 04:05:14;;;;;;;3.10;1.33;;;;;;;;;;5032902;28;20485;-42
2023/03/16 04:07:40;;;;;;;1.95;1.30;;;;;;;;;;5034771;28;20029;-41
2023/03/16 04:10:06;;;;;;;2.13;1.30;;;;;;;;;;5038979;28;20036;-43
2023/03/16 04:12:31;;;;;;;1.58;1.20;;;;;;;;;;5032489;28;20049;-42
2023/03/16 04:14:58;;;;;;;5.55;1.73;;;;;;;;;;5035792;28;20017;-41
2023/03/16 04:17:25;;;;;;;4.50;1.30;;;;;;;;;;5035204;28;20044;-42
2023/03/16 04:19:51;;;;;;;4.53;1.13;;;;;;;;;;5040654;28;20040;-42
2023/03/16 04:22:25;;;;;;;2.40;1.42;;;;;;;;;;5023192;28;20045;-43
2023/03/16 04:24:51;;;;;;;2.47;1.40;;;;;;;;;;5028857;28;20036;-41
2023/03/16 04:27:17;;;;;;;3.03;1.30;;;;;;;;;;5033092;28;20056;-43
2023/03/16 04:29:44;;;;;;;2.28;1.40;;;;;;;;;;5035130;28;20128;-45
2023/03/16 04:32:10;;;;;;;1.65;1.15;;;;;;;;;;5036417;28;20071;-41
2023/03/16 04:34:47;;;;;;;5.53;1.60;;;;;;;;;;5037423;28;20028;-42
2023/03/16 04:37:13;;;;;;;2.65;1.20;;;;;;;;;;5031236;28;20128;-45
2023/03/16 04:39:38;;;;;;;3.05;1.45;;;;;;;;;;5037722;28;20116;-47
2023/03/16 04:42:05;;;;;;;2.88;1.42;;;;;;;;;;5036062;28;20040;-45
2023/03/16 04:44:30;;;;;;;2.00;1.02;;;;;;;;;;5029417;28;20784;-43
2023/03/16 04:46:55;;;;;;;3.17;1.67;;;;;;;;;;5036393;28;20103;-42
2023/03/16 04:49:21;;;;;;;2.25;1.30;;;;;;;;;;5034074;28;20017;-42
2023/03/16 04:51:46;;;;;;;6.22;1.30;;;;;;;;;;5035537;28;20057;-43
2023/03/16 04:54:18;;;;;;;3.08;1.20;;;;;;;;;;5033778;28;20105;-43
2023/03/16 04:56:43;;;;;;;3.08;1.40;;;;;;;;;;5036044;28;20064;-41
2023/03/16 04:59:09;;;;;;;4.00;1.23;;;;;;;;;;5032036;28;20506;-42
2023/03/16 05:01:34;;;;;;;3.88;1.63;;;;;;;;;;5036898;28;20034;-44
2023/03/16 05:04:01;;;;;;;2.20;1.05;;;;;;;;;;5033776;28;20437;-42
2023/03/16 05:06:26;;;;;;;2.78;1.17;;;;;;;;;;5037075;28;20045;-41
2023/03/16 05:08:52;;;;;;;1.15;0.95;;;;;;;;;;5032664;28;20013;-41
2023/03/16 05:11:17;;;;;;;1.50;1.08;;;;;;;;;;5030181;28;20463;-41
2023/03/16 05:13:52;;;;;;;3.33;0.88;;;;;;;;;;5031792;28;20034;-41
2023/03/16 05:16:17;;;;;;;2.38;1.30;;;;;;;;;;5029138;28;20047;-43
2023/03/16 05:18:42;;;;;;;2.53;1.10;;;;;;;;;;5033789;28;22158;-42
2023/03/16 05:21:08;;;;;;;2.33;0.90;;;;;;;;;;5029324;28;20036;-42
2023/03/16 05:23:34;;;;;;;2.33;1.05;;;;;;;;;;5033325;28;20034;-45
2023/03/16 05:26:00;;;;;;;3.35;1.00;;;;;;;;;;5038050;28;20029;-42
2023/03/16 05:28:26;;;;;;;1.20;0.93;;;;;;;;;;5037317;28;20047;-43
2023/03/16 05:30:51;;;;;;;6.45;1.10;;;;;;;;;;5030565;28;20433;-41
2023/03/16 05:33:25;;;;;;;0.88;0.88;;;;;;;;;;5029792;28;20052;-42
2023/03/16 05:35:51;;;;;;;2.08;1.30;;;;;;;;;;5029766;28;20056;-42
2023/03/16 05:38:17;;;;;;;1.20;0.80;;;;;;;;;;5025791;28;20537;-41
2023/03/16 05:40:42;;;;;;;3.20;0.98;;;;;;;;;;5027637;28;20041;-40
2023/03/16 05:43:08;;;;;;;1.52;1.10;;;;;;;;;;5024764;28;20416;-41
2023/03/16 05:45:33;;;;;;;1.67;0.70;;;;;;;;;;5025847;28;20030;-45
2023/03/16 05:47:59;;;;;;;2.50;1.10;;;;;;;;;;5023545;28;20033;-46
2023/03/16 05:50:25;;;;;;;2.00;1.13;;;;;;;;;;5014721;28;20037;-41
2023/03/16 05:53:00;;;;;;;1.25;0.95;;;;;;;;;;5032055;28;20061;-41
2023/03/16 05:55:25;;;;;;;4.63;1.20;;;;;;;;;;5029361;28;20047;-41
2023/03/16 05:57:50;;;;;;;3.55;0.98;;;;;;;;;;5024724;28;20390;-41
2023/03/16 06:00:17;;;;;;;4.20;0.90;;;;;;;;;;5025915;28;20763;-41
2023/03/16 06:02:47;;;;;;;5.10;1.30;;;;;;;;;;5032595;28;20037;-42
2023/03/16 06:05:21;;;;;;;1.20;1.08;;;;;;;;;;5016889;28;20034;-42
2023/03/16 06:07:49;;;;;;;1.67;1.10;;;;;;;;;;5025691;28;20033;-42
2023/03/16 06:10:15;;;;;;;1.63;1.13;;;;;;;;;;5030959;28;20091;-42
2023/03/16 06:12:41;;;;;;;3.05;1.38;;;;;;;;;;5033310;28;20060;-42
2023/03/16 06:15:08;;;;;;;3.17;1.30;;;;;;;;;;5027500;28;20021;-42
2023/03/16 06:17:43;;;;;;;3.30;1.00;;;;;;;;;;5033887;28;20046;-43
2023/03/16 06:20:11;;;;;;;3.47;1.05;;;;;;;;;;5025685;28;20494;-41
2023/03/16 06:22:41;;;;;;;1.38;1.00;;;;;;;;;;5030263;28;20095;-42
2023/03/16 06:25:08;;;;;;;3.83;1.10;;;;;;;;;;5029290;28;20055;-41
2023/03/16 06:27:34;;;;;;;1.85;1.17;;;;;;;;;;5029320;28;20121;-43
2023/03/16 06:30:07;;;;;;;1.25;1.15;;;;;;;;;;5037556;28;20096;-41
2023/03/16 06:32:34;;;;;;;4.25;1.30;;;;;;;;;;5027891;28;20060;-41
2023/03/16 06:35:02;;;;;;;2.05;1.10;;;;;;;;;;5037383;28;20025;-43
2023/03/16 06:37:28;;;;;;;4.82;1.33;;;;;;;;;;5033293;28;20049;-44
2023/03/16 06:39:54;;;;;;;1.70;1.40;;;;;;;;;;5034020;28;20032;-42
2023/03/16 06:42:19;;;;;;;2.10;1.40;;;;;;;;;;5032388;28;20042;-43
2023/03/16 06:44:44;;;;;;;1.80;1.42;;;;;;;;;;5030573;28;20044;-44
2023/03/16 06:47:10;;;;;;;6.63;1.50;;;;;;;;;;5028699;28;20132;-41
2023/03/16 06:49:36;;;;;;;5.20;1.80;;;;;;;;;;5036044;28;20107;-42
2023/03/16 06:52:02;;;;;;;3.50;1.42;;;;;;;;;;5032290;28;20091;-43
2023/03/16 06:54:28;;;;;;;4.55;1.85;;;;;;;;;;5034059;28;20029;-41
2023/03/16 06:56:53;;;;;;;6.45;2.05;;;;;;;;;;5023236;28;20488;-41
2023/03/16 06:59:18;;;;;;;4.07;2.33;;;;;;;;;;5032169;28;20094;-44
2023/03/16 07:01:44;;;;;;;5.43;1.98;;;;;;;;;;5026694;28;20064;-44
2023/03/16 07:04:11;;;;;;;4.13;1.92;;;;;;;;;;5024585;28;20025;-41
2023/03/16 07:06:37;;;;;;;4.32;2.10;;;;;;;;;;5030892;28;20968;-42
2023/03/16 07:09:03;;;;;;;4.65;1.52;;;;;;;;;;5029525;28;20029;-42
2023/03/16 07:11:29;;;;;;;5.35;1.63;;;;;;;;;;5020808;28;20092;-42
2023/03/16 07:13:54;;;;;;;4.95;1.67;;;;;;;;;;5032957;28;20090;-46
2023/03/16 07:16:26;;;;;;;1.40;1.30;;;;;;;;;;5023338;28;20144;-43
2023/03/16 07:18:51;;;;;;;2.92;1.40;;;;;;;;;;5028569;28;20029;-42
2023/03/16 07:21:17;;;;;;;4.18;1.60;;;;;;;;;;5023560;28;20053;-43
2023/03/16 07:23:43;;;;;;;3.00;1.67;;;;;;;;;;5035384;28;20477;-44
2023/03/16 07:26:10;;;;;;;4.22;1.52;;;;;;;;;;5028010;28;20075;-43
2023/03/16 07:28:46;;;;;;;1.60;1.20;;;;;;;;;;5024927;28;20144;-43
2023/03/16 07:31:13;;;;;;;2.70;1.10;;;;;;;;;;5029074;28;20036;-45
2023/03/16 07:33:39;;;;;;;4.85;1.30;;;;;;;;;;5031714;28;20033;-49
2023/03/16 07:36:04;;;;;;;2.67;1.60;;;;;;;;;;5031063;28;20047;-42
2023/03/16 07:38:33;;;;;;;4.00;2.10;;;;;;;;;;5031902;28;20513;-43
2023/03/16 07:40:59;;;;;;;1.75;1.20;;;;;;;;;;5033942;28;20534;-42
2023/03/16 07:43:25;;;;;;;4.22;1.23;;;;;;;;;;5036026;28;20501;-42
2023/03/16 07:45:51;;;;;;;2.33;1.15;;;;;;;;;;5033398;28;20033;-43
2023/03/16 07:48:22;;;;;;;3.65;1.02;;;;;;;;;;5033374;28;20038;-41
2023/03/16 07:50:49;;;;;;;1.83;1.08;;;;;;;;;;5051941;28;20037;-42
2023/03/16 07:53:14;;;;;;;2.70;1.10;;;;;;;;;;5037921;28;20073;-44
2023/03/16 07:55:41;;;;;;;2.53;1.23;;;;;;;;;;5036319;28;20528;-42
2023/03/16 07:58:09;;;;;;;5.50;1.05;;;;;;;;;;5033733;28;20116;-43
2023/03/16 08:00:43;;;;;;;2.20;1.02;;;;;;;;;;5033716;28;20160;-42
2023/03/16 08:03:09;;;;;;;1.48;0.95;;;;;;;;;;5031316;28;20052;-47
2023/03/16 08:05:34;;;;;;;3.50;1.20;;;;;;;;;;5037087;28;20028;-46
2023/03/16 08:08:00;;;;;;;1.08;0.75;;;;;;;;;;5033331;28;20046;-50
2023/03/16 08:10:26;;;;;;;3.50;0.90;;;;;;;;;;5040213;28;20025;-44
2023/03/16 08:13:03;;;;;;;0.95;0.77;;;;;;;;;;5037400;28;20045;-42
2023/03/16 08:15:32;;;;;;;1.45;0.93;;;;;;;;;;5029862;28;20457;-43
2023/03/16 08:17:59;;;;;;;1.77;0.88;;;;;;;;;;5034053;28;20048;-46
2023/03/16 08:20:27;;;;;;;2.08;0.93;;;;;;;;;;5036194;28;20034;-42
2023/03/16 08:22:53;;;;;;;0.90;0.70;;;;;;;;;;5035084;28;20045;-48
2023/03/16 08:25:25;;;;;;;2.40;0.90;;;;;;;;;;5035761;28;20037;-51
2023/03/16 08:27:51;;;;;;;1.00;0.88;;;;;;;;;;5030602;28;20168;-47
2023/03/16 08:30:17;;;;;;;1.65;0.95;;;;;;;;;;5034657;28;20108;-45
2023/03/16 08:32:43;;;;;;;1.23;0.90;;;;;;;;;;5034828;28;20050;-42
2023/03/16 08:35:12;;;;;;;3.72;1.33;;;;;;;;;;5033148;28;20048;-46
2023/03/16 08:37:38;;;;;;;1.08;0.90;;;;;;;;;;5029913;28;20033;-45
2023/03/16 08:40:09;;;;;;;1.98;0.90;;;;;;;;;;5037200;28;20056;-48
2023/03/16 08:42:40;;;;;;;1.35;0.55;;;;;;;;;;5038041;28;20037;-45
2023/03/16 08:45:08;;;;;;;0.60;0.60;;;;;;;;;;5034604;28;22732;-44
2023/03/16 08:47:40;;;;;;;0.63;0.60;;;;;;;;;;5034234;28;20033;-48
2023/03/16 08:50:07;;;;;;;3.40;0.77;;;;;;;;;;5033428;28;20057;-42
2023/03/16 08:52:41;;;;;;;2.83;0.80;;;;;;;;;;5029357;28;20508;-42
2023/03/16 08:55:10;;;;;;;0.77;0.77;;;;;;;;;;5036333;28;20075;-43
2023/03/16 08:57:37;;;;;;;1.95;0.70;;;;;;;;;;5034881;28;20501;-42
2023/03/16 09:00:11;;;;;;;0.65;0.65;;;;;;;;;;5032990;28;20159;-44
2023/03/16 09:02:37;;;;;;;2.67;0.80;;;;;;;;;;5033556;28;20037;-42
2023/03/16 09:05:03;;;;;;;0.82;0.73;;;;;;;;;;5033298;28;20029;-41
2023/03/16 09:07:36;;;;;;;0.80;0.80;;;;;;;;;;5024131;28;20037;-41
2023/03/16 09:10:04;;;;;;;2.05;1.13;;;;;;;;;;5034010;28;20030;-41
2023/03/16 09:12:31;;;;;;;1.00;0.90;;;;;;;;;;5032514;28;20053;-42
2023/03/16 09:14:56;;;;;;;1.95;0.80;;;;;;;;;;5034934;28;20053;-44
2023/03/16 09:17:22;;;;;;;3.72;1.10;;;;;;;;;;5032306;28;20498;-43
2023/03/16 09:19:56;;;;;;;8.60;0.88;;;;;;;;;;5033186;28;20026;-42
2023/03/16 09:22:23;;;;;;;3.50;1.15;;;;;;;;;;5030593;28;20379;-42
2023/03/16 09:24:48;;;;;;;5.20;1.60;;;;;;;;;;5033837;28;20108;-42
2023/03/16 09:27:14;;;;;;;1.25;1.00;;;;;;;;;;5033208;28;20140;-42
2023/03/16 09:29:41;;;;;;;3.38;0.90;;;;;;;;;;5029794;28;20032;-42
2023/03/16 09:32:16;;;;;;;2.22;1.27;;;;;;;;;;5028055;28;20490;-42
2023/03/16 09:34:41;;;;;;;1.42;0.93;;;;;;;;;;5034176;28;20033;-44
2023/03/16 09:37:08;;;;;;;1.55;0.90;;;;;;;;;;5036621;28;20045;-42
2023/03/16 09:39:37;;;;;;;1.30;1.20;;;;;;;;;;5033089;28;20048;-42
2023/03/16 09:42:13;;;;;;;5.00;0.88;;;;;;;;;;5029952;28;20053;-43
2023/03/16 09:44:46;;;;;;;3.10;1.23;;;;;;;;;;5027879;28;20030;-45
2023/03/16 09:47:15;;;;;;;6.78;0.80;;;;;;;;;;5030368;28;20053;-41
2023/03/16 09:49:48;;;;;;;4.03;0.93;;;;;;;;;;5037119;28;20044;-41
2023/03/16 09:52:56;;;;;;;1.63;0.80;;;;;;;;;;5033915;28;20490;-42
2023/03/16 09:55:33;;;;;;;2.30;0.80;;;;;;;;;;5036215;28;20505;-41
2023/03/16 09:58:00;;;;;;;1.10;0.70;;;;;;;;;;5030552;28;20071;-43
2023/03/16 10:00:26;;;;;;;5.32;0.90;;;;;;;;;;5032853;28;20060;-42
2023/03/16 10:03:09;;;;;;;3.00;0.88;;;;;;;;;;5028678;28;20070;-43
2023/03/16 10:05:35;;;;;;;1.25;0.98;;;;;;;;;;5028433;28;20037;-42
2023/03/16 10:08:23;;;;;;;4.00;0.93;;;;;;;;;;5036455;28;20037;-44
2023/03/16 10:11:04;;;;;;;4.25;1.05;;;;;;;;;;5036341;28;20033;-42
2023/03/16 10:13:46;;;;;;;0.75;0.70;;;;;;;;;;5034577;28;20043;-42
2023/03/16 10:16:38;;;;;;;1.65;0.82;;;;;;;;;;5034462;28;20049;-42
2023/03/16 10:19:13;;;;;;;;;;;;;;;;;;5035436;28;20032;-45
2023/03/16 10:21:40;;;;;;;3.50;0.77;;;;;;;;;;5029905;28;19925;-42
2023/03/16 10:24:42;;;;;;;2.42;1.23;;;;;;;;;;5033560;28;20063;-42
2023/03/16 10:27:18;;;;;;;1.50;0.90;;;;;;;;;;5029075;28;20057;-42
2023/03/16 10:29:43;;;;;;;1.55;0.90;;;;;;;;;;5031775;28;20025;-42
2023/03/16 10:32:15;;;;;;;4.07;0.90;;;;;;;;;;5031143;28;20064;-42
2023/03/16 10:34:45;;;;;;;1.08;0.90;;;;;;;;;;5025865;28;20034;-42
2023/03/16 10:37:13;;;;;;;2.15;1.10;;;;;;;;;;5030696;28;20045;-42
2023/03/16 10:39:41;;;;;;;2.53;0.90;;;;;;;;;;5028156;28;20033;-42
2023/03/16 10:42:20;;;;;;;7.78;1.33;;;;;;;;;;5033980;28;20040;-42
2023/03/16 10:44:46;;;;;;;2.60;1.13;;;;;;;;;;5031394;28;20148;-41
2023/03/16 10:47:27;;;;;;;1.42;1.10;;;;;;;;;;5033256;28;20049;-42
2023/03/16 10:49:52;;;;;;;4.22;1.00;;;;;;;;;;5029285;28;20033;-42
2023/03/16 10:52:41;;;;;;;5.43;1.10;;;;;;;;;;5029261;28;20745;-45
2023/03/16 10:55:14;;;;;;;2.05;1.02;;;;;;;;;;5031856;28;20057;-43
2023/03/16 10:57:42;;;;;;;4.72;1.02;;;;;;;;;;5030022;28;20041;-42
2023/03/16 11:00:19;;;;;;;2.95;0.93;;;;;;;;;;5033364;28;20375;-44
2023/03/16 11:02:48;;;;;;;4.68;1.05;;;;;;;;;;5024606;28;20104;-43
2023/03/16 11:05:16;;;;;;;2.53;0.93;;;;;;;;;;5033209;28;20484;-41
2023/03/16 11:07:59;;;;;;;3.20;0.95;;;;;;;;;;5036038;28;20041;-41
2023/03/16 11:10:27;;;;;;;1.83;0.95;;;;;;;;;;5040825;28;20028;-41
2023/03/16 11:12:54;;;;;;;2.88;1.17;;;;;;;;;;5033377;28;20084;-44
2023/03/16 11:15:20;;;;;;;3.75;1.45;;;;;;;;;;5036153;28;23297;-42
2023/03/16 11:17:50;;;;;;;3.05;1.23;;;;;;;;;;5034114;28;20528;-41
2023/03/16 11:20:32;;;;;;;5.55;2.00;;;;;;;;;;5028876;28;20036;-41
2023/03/16 11:22:59;;;;;;;2.83;1.73;;;;;;;;;;5038083;28;20534;-44
2023/03/16 11:25:46;;;;;;;4.50;1.25;;;;;;;;;;5030908;28;20430;-42
2023/03/16 11:28:33;;;;;;;3.17;1.45;;;;;;;;;;5033389;28;20127;-41
2023/03/16 11:31:35;;;;;;;1.27;1.17;;;;;;;;;;5039385;28;20053;-41
2023/03/16 11:34:01;;;;;;;6.82;1.17;;;;;;;;;;5036677;28;20108;-41
2023/03/16 11:37:04;;;;;;;3.75;1.10;;;;;;;;;;5033124;28;20045;-42
2023/03/16 11:39:32;;;;;;;;;;;;;;;;;;5037688;28;20053;-41
2023/03/16 11:41:57;;;;;;;2.88;1.20;;;;;;;;;;5036961;28;20020;-41
2023/03/16 11:44:50;;;;;;;3.85;1.15;;;;;;;;;;5054153;28;20151;-45
2023/03/16 11:47:33;;;;;;;2.50;1.08;;;;;;;;;;5035004;28;20041;-42
2023/03/16 11:50:29;;;;;;;5.15;1.23;;;;;;;;;;5035679;28;20474;-42
2023/03/16 11:53:06;;;;;;;6.15;1.50;;;;;;;;;;5034271;28;20107;-41
2023/03/16 11:55:40;;;;;;;6.30;1.30;;;;;;;;;;5034450;28;20025;-41
2023/03/16 11:58:49;;;;;;;5.75;1.10;;;;;;;;;;5023829;28;20069;-40
2023/03/16 12:01:37;;;;;;;5.82;1.15;;;;;;;;;;5029042;28;20363;-43
2023/03/16 12:04:11;;;;;;;4.80;1.30;;;;;;;;;;5028301;28;20137;-43
2023/03/16 12:06:59;;;;;;;2.80;1.40;;;;;;;;;;5035538;28;20124;-41
2023/03/16 12:09:50;;;;;;;3.40;1.40;;;;;;;;;;5024254;28;20164;-41
2023/03/16 12:12:39;;;;;;;4.82;1.42;;;;;;;;;;5034026;28;20049;-41
2023/03/16 12:15:28;;;;;;;3.95;1.20;;;;;;;;;;5030681;28;20025;-44
2023/03/16 12:18:14;;;;;;;3.35;1.90;;;;;;;;;;5021297;28;20045;-43
2023/03/16 12:20:47;;;;;;;2.88;1.38;;;;;;;;;;5027259;28;20094;-41
2023/03/16 12:23:21;;;;;;;2.95;1.35;;;;;;;;;;5027188;28;20045;-41
2023/03/16 12:25:48;;;;;;;0.93;0.88;;;;;;;;;;5029016;28;20370;-43
2023/03/16 12:28:22;;;;;;;3.72;1.50;;;;;;;;;;5035100;28;20063;-42
2023/03/16 12:31:23;;;;;;;3.58;1.33;;;;;;;;;;5030304;28;20033;-45
2023/03/16 12:34:01;;;;;;;5.00;1.85;;;;;;;;;;5025300;28;20457;-43
2023/03/16 12:37:01;;;;;;;2.95;1.58;;;;;;;;;;5034876;28;20054;-40
2023/03/16 12:39:46;;;;;;;1.67;1.08;;;;;;;;;;5031042;28;20040;-42
2023/03/16 12:42:36;;;;;;;3.85;1.67;;;;;;;;;;5033457;28;20059;-40
2023/03/16 12:45:07;;;;;;;2.45;1.48;;;;;;;;;;5036527;28;20462;-40
2023/03/16 12:47:47;;;;;;;3.25;1.13;;;;;;;;;;5032871;28;20033;-40
2023/03/16 12:50:14;;;;;;;5.80;1.92;;;;;;;;;;5034883;28;20998;-42
2023/03/16 12:52:45;;;;;;;4.30;1.30;;;;;;;;;;5036655;28;20052;-41
2023/03/16 12:55:16;;;;;;;5.00;1.35;;;;;;;;;;5036917;28;20442;-42
2023/03/16 12:57:44;;;;;;;8.13;1.40;;;;;;;;;;5033073;28;20030;-42
2023/03/16 13:00:12;;;;;;;6.35;1.23;;;;;;;;;;5034953;28;20041;-43
2023/03/16 13:02:43;;;;;;;2.03;1.20;;;;;;;;;;5037534;28;20042;-42
2023/03/16 13:05:16;;;;;;;3.70;0.90;;;;;;;;;;5031704;28;20033;-42
2023/03/16 13:07:47;;;;;;;4.63;1.30;;;;;;;;;;5035026;28;20045;-44
2023/03/16 13:10:15;;;;;;;2.70;1.40;;;;;;;;;;5031308;28;20474;-42
2023/03/16 13:12:41;;;;;;;2.35;1.02;;;;;;;;;;5034623;28;20046;-43
2023/03/16 13:15:16;;;;;;;3.97;1.25;;;;;;;;;;5030774;28;20042;-45
2023/03/16 13:17:42;;;;;;;1.77;1.00;;;;;;;;;;5034107;28;20510;-45
2023/03/16 13:20:29;;;;;;;2.08;0.98;;;;;;;;;;5037368;28;20033;-42
2023/03/16 13:23:08;;;;;;;2.85;1.00;;;;;;;;;;5033005;28;20036;-41
2023/03/16 13:25:42;;;;;;;5.13;1.42;;;;;;;;;;5033708;28;20112;-41
2023/03/16 13:28:16;;;;;;;6.97;1.60;;;;;;;;;;5037118;28;20056;-42
2023/03/16 13:30:47;;;;;;;2.22;1.20;;;;;;;;;;5034605;28;20068;-42
2023/03/16 13:33:27;;;;;;;5.25;1.45;;;;;;;;;;5031601;28;20041;-41
2023/03/16 13:35:55;;;;;;;5.28;1.65;;;;;;;;;;5033815;28;20071;-41
2023/03/16 13:38:26;;;;;;;4.28;1.27;;;;;;;;;;5037427;28;20152;-45
2023/03/16 13:40:57;;;;;;;7.30;1.20;;;;;;;;;;5037599;28;20037;-45
2023/03/16 13:43:27;;;;;;;1.98;1.05;;;;;;;;;;5037584;28;20041;-42
2023/03/16 13:45:53;;;;;;;3.45;1.58;;;;;;;;;;5032774;28;20025;-42
2023/03/16 13:48:19;;;;;;;2.95;0.88;;;;;;;;;;5035831;28;20444;-42
2023/03/16 13:50:58;;;;;;;1.95;0.80;;;;;;;;;;5032050;28;20030;-41
2023/03/16 13:53:30;;;;;;;4.60;0.90;;;;;;;;;;5030672;28;20080;-42
2023/03/16 13:55:57;;;;;;;4.15;0.93;;;;;;;;;;5033393;28;20132;-42
2023/03/16 13:58:31;;;;;;;4.60;1.05;;;;;;;;;;5035220;28;20041;-51
2023/03/16 14:00:59;;;;;;;4.35;1.20;;;;;;;;;;5033741;28;20024;-42
2023/03/16 14:03:37;;;;;;;1.58;0.70;;;;;;;;;;5038756;28;20033;-44
2023/03/16 14:06:05;;;;;;;2.78;1.08;;;;;;;;;;5030617;28;20516;-42
2023/03/16 14:08:32;;;;;;;5.63;1.00;;;;;;;;;;5035896;28;20047;-41
2023/03/16 14:10:59;;;;;;;4.32;1.05;;;;;;;;;;5037021;28;20032;-47
2023/03/16 14:13:27;;;;;;;6.38;0.88;;;;;;;;;;5031182;28;20113;-41
2023/03/16 14:15:55;;;;;;;5.72;1.17;;;;;;;;;;5034252;28;20025;-42
2023/03/16 14:18:56;;;;;;;6.55;1.23;;;;;;;;;;5029625;28;20686;-45
2023/03/16 14:21:23;;;;;;;2.53;1.20;;;;;;;;;;5028525;28;20098;-41
2023/03/16 14:23:56;;;;;;;6.30;1.00;;;;;;;;;;5034173;28;20037;-41
2023/03/16 14:26:22;;;;;;;3.15;0.93;;;;;;;;;;5028654;28;20132;-45
2023/03/16 14:28:58;;;;;;;2.47;1.10;;;;;;;;;;5033445;28;20107;-41
2023/03/16 14:31:34;;;;;;;1.33;0.82;;;;;;;;;;5031412;28;20061;-43
2023/03/16 14:34:03;;;;;;;5.32;1.02;;;;;;;;;;5032508;28;20080;-42
2023/03/16 14:36:35;;;;;;;4.60;1.00;;;;;;;;;;5030464;28;20084;-42
2023/03/16 14:39:18;;;;;;;;;;;;;;;;;;5032320;28;20060;-41
2023/03/16 14:41:48;;;;;;;2.33;0.85;;;;;;;;;;5030355;28;19924;-44
2023/03/16 14:44:27;;;;;;;1.77;0.70;;;;;;;;;;5030427;28;20096;-41
2023/03/16 14:46:56;;;;;;;3.58;0.80;;;;;;;;;;5033245;28;20047;-45
2023/03/16 14:49:21;;;;;;;8.23;0.93;;;;;;;;;;5034542;28;20173;-41
2023/03/16 14:51:49;;;;;;;1.10;0.70;;;;;;;;;;5032475;28;20079;-41
2023/03/16 14:54:16;;;;;;;1.92;0.70;;;;;;;;;;5033798;28;20028;-40
2023/03/16 14:56:42;;;;;;;6.40;1.08;;;;;;;;;;5026487;28;20045;-42
2023/03/16 14:59:08;;;;;;;3.63;1.25;;;;;;;;;;5030831;28;20030;-44
2023/03/16 15:01:34;;;;;;;2.83;0.90;;;;;;;;;;5028966;28;20493;-42
2023/03/16 15:04:00;;;;;;;2.25;0.90;;;;;;;;;;5018856;28;20033;-43